sensor_id;sensor_type;location;lat;lon;timestamp;pressure;altitude;pressure_sealevel;temperature;humidity
22020;BME280;51298;53.362;-1.518;2023-12-22T00:00:20;98583.38;;;7.03;81.41
22020;BME280;51298;53.362;-1.518;2023-12-22T00:02:54;98562.22;;;6.98;81.93
22020;BME280;51298;53.362;-1.518;2023-12-22T00:05:45;98575.75;;;7.10;81.21
22020;BME280;51298;53.362;-1.518;2023-12-22T00:08:18;98559.53;;;7.08;81.75
22020;BME280;51298;53.362;-1.518;2023-12-22T00:11:10;98562.59;;;7.03;81.97
22020;BME280;51298;53.362;-1.518;2023-12-22T00:13:57;98573.66;;;7.14;81.37
22020;BME280;51298;53.362;-1.518;2023-12-22T00:16:33;98578.88;;;7.14;81.15
22020;BME280;51298;53.362;-1.518;2023-12-22T00:19:20;98564.91;;;7.15;81.16
22020;BME280;51298;53.362;-1.518;2023-12-22T00:21:54;98552.78;;;7.23;80.10
22020;BME280;51298;53.362;-1.518;2023-12-22T00:24:43;98554.84;;;7.12;81.65
22020;BME280;51298;53.362;-1.518;2023-12-22T00:27:15;98550.97;;;7.16;80.68
22020;BME280;51298;53.362;-1.518;2023-12-22T00:30:03;98568.16;;;7.17;80.60
22020;BME280;51298;53.362;-1.518;2023-12-22T00:32:36;98552.75;;;7.15;80.23
22020;BME280;51298;53.362;-1.518;2023-12-22T00:35:28;98546.72;;;7.15;80.13
22020;BME280;51298;53.362;-1.518;2023-12-22T00:38:01;98562.78;;;7.10;80.01
22020;BME280;51298;53.362;-1.518;2023-12-22T00:40:49;98544.25;;;7.05;80.03
22020;BME280;51298;53.362;-1.518;2023-12-22T00:43:30;98547.88;;;7.12;79.64
22020;BME280;51298;53.362;-1.518;2023-12-22T00:46:20;98545.06;;;7.05;79.95
22020;BME280;51298;53.362;-1.518;2023-12-22T00:48:54;98561.66;;;7.13;79.19
22020;BME280;51298;53.362;-1.518;2023-12-22T00:51:41;98571.06;;;7.14;79.42
22020;BME280;51298;53.362;-1.518;2023-12-22T00:54:19;98558.59;;;7.17;80.00
22020;BME280;51298;53.362;-1.518;2023-12-22T00:57:09;98573.38;;;7.17;80.26
22020;BME280;51298;53.362;-1.518;2023-12-22T00:59:44;98577.44;;;7.19;80.24
22020;BME280;51298;53.362;-1.518;2023-12-22T01:02:31;98561.06;;;7.19;80.46
22020;BME280;51298;53.362;-1.518;2023-12-22T01:05:04;98567.06;;;7.19;81.03
22020;BME280;51298;53.362;-1.518;2023-12-22T01:07:50;98581.31;;;7.15;81.42
22020;BME280;51298;53.362;-1.518;2023-12-22T01:10:22;98571.72;;;7.07;82.53
22020;BME280;51298;53.362;-1.518;2023-12-22T01:13:10;98576.16;;;6.89;83.67
22020;BME280;51298;53.362;-1.518;2023-12-22T01:15:43;98574.53;;;6.88;84.36
22020;BME280;51298;53.362;-1.518;2023-12-22T01:18:29;98584.84;;;6.80;85.18
22020;BME280;51298;53.362;-1.518;2023-12-22T01:21:05;98579.63;;;6.80;85.45
22020;BME280;51298;53.362;-1.518;2023-12-22T01:24:01;98588.56;;;6.77;86.46
22020;BME280;51298;53.362;-1.518;2023-12-22T01:26:38;98592.03;;;6.86;86.23
22020;BME280;51298;53.362;-1.518;2023-12-22T01:29:25;98575.63;;;6.85;86.55
22020;BME280;51298;53.362;-1.518;2023-12-22T01:32:01;98575.63;;;6.85;86.64
22020;BME280;51298;53.362;-1.518;2023-12-22T01:34:48;98569.97;;;6.90;86.45
22020;BME280;51298;53.362;-1.518;2023-12-22T01:37:23;98574.88;;;6.93;86.58
22020;BME280;51298;53.362;-1.518;2023-12-22T01:40:09;98553.44;;;6.91;87.15
22020;BME280;51298;53.362;-1.518;2023-12-22T01:42:41;98552.78;;;6.89;87.21
22020;BME280;51298;53.362;-1.518;2023-12-22T01:45:28;98535.94;;;6.93;86.35
22020;BME280;51298;53.362;-1.518;2023-12-22T01:48:04;98527.16;;;6.94;86.83
22020;BME280;51298;53.362;-1.518;2023-12-22T01:50:58;98513.22;;;6.95;86.16
22020;BME280;51298;53.362;-1.518;2023-12-22T01:53:38;98522.50;;;7.06;86.06
22020;BME280;51298;53.362;-1.518;2023-12-22T01:56:28;98519.81;;;7.16;85.42
22020;BME280;51298;53.362;-1.518;2023-12-22T01:59:02;98516.44;;;7.23;85.54
22020;BME280;51298;53.362;-1.518;2023-12-22T02:01:52;98507.16;;;7.21;85.50
22020;BME280;51298;53.362;-1.518;2023-12-22T02:04:27;98509.59;;;7.22;85.31
22020;BME280;51298;53.362;-1.518;2023-12-22T02:07:15;98502.97;;;7.28;84.52
22020;BME280;51298;53.362;-1.518;2023-12-22T02:09:49;98498.88;;;7.25;84.64
22020;BME280;51298;53.362;-1.518;2023-12-22T02:12:38;98495.66;;;7.31;84.29
22020;BME280;51298;53.362;-1.518;2023-12-22T02:15:16;98506.56;;;7.35;84.62
22020;BME280;51298;53.362;-1.518;2023-12-22T02:18:20;98500.25;;;7.46;84.18
22020;BME280;51298;53.362;-1.518;2023-12-22T02:20:55;98508.50;;;7.41;85.17
22020;BME280;51298;53.362;-1.518;2023-12-22T02:23:41;98516.31;;;7.41;85.92
22020;BME280;51298;53.362;-1.518;2023-12-22T02:26:37;98518.88;;;7.33;87.37
22020;BME280;51298;53.362;-1.518;2023-12-22T02:32:42;98513.84;;;7.31;87.95
22020;BME280;51298;53.362;-1.518;2023-12-22T02:35:37;98523.31;;;7.49;86.33
22020;BME280;51298;53.362;-1.518;2023-12-22T02:38:21;98506.09;;;7.48;86.70
22020;BME280;51298;53.362;-1.518;2023-12-22T02:41:12;98519.59;;;7.51;85.95
22020;BME280;51298;53.362;-1.518;2023-12-22T02:43:47;98517.50;;;7.63;85.26
22020;BME280;51298;53.362;-1.518;2023-12-22T02:46:36;98515.06;;;7.62;85.13
22020;BME280;51298;53.362;-1.518;2023-12-22T02:49:12;98517.19;;;7.66;85.10
22020;BME280;51298;53.362;-1.518;2023-12-22T02:51:59;98533.47;;;7.76;84.65
22020;BME280;51298;53.362;-1.518;2023-12-22T02:54:48;98513.78;;;7.74;84.85
22020;BME280;51298;53.362;-1.518;2023-12-22T02:58:08;98486.00;;;7.66;85.25
22020;BME280;51298;53.362;-1.518;2023-12-22T03:00:54;98502.41;;;7.58;86.42
22020;BME280;51298;53.362;-1.518;2023-12-22T03:03:41;98499.31;;;7.55;86.19
22020;BME280;51298;53.362;-1.518;2023-12-22T03:06:20;98493.78;;;7.50;86.54
22020;BME280;51298;53.362;-1.518;2023-12-22T03:09:06;98488.25;;;7.53;86.06
22020;BME280;51298;53.362;-1.518;2023-12-22T03:11:49;98493.47;;;7.61;86.04
22020;BME280;51298;53.362;-1.518;2023-12-22T03:14:48;98490.88;;;7.61;85.94
22020;BME280;51298;53.362;-1.518;2023-12-22T03:17:30;98485.13;;;7.49;86.12
22020;BME280;51298;53.362;-1.518;2023-12-22T03:20:57;98482.19;;;7.36;87.42
22020;BME280;51298;53.362;-1.518;2023-12-22T03:23:30;98476.69;;;7.31;87.84
22020;BME280;51298;53.362;-1.518;2023-12-22T03:26:20;98472.78;;;7.27;88.16
22020;BME280;51298;53.362;-1.518;2023-12-22T03:28:56;98464.81;;;7.37;87.21
22020;BME280;51298;53.362;-1.518;2023-12-22T03:31:51;98439.66;;;7.29;88.00
22020;BME280;51298;53.362;-1.518;2023-12-22T03:34:31;98426.16;;;7.25;88.07
22020;BME280;51298;53.362;-1.518;2023-12-22T03:37:20;98428.94;;;7.32;87.94
22020;BME280;51298;53.362;-1.518;2023-12-22T03:39:53;98425.03;;;7.28;88.11
22020;BME280;51298;53.362;-1.518;2023-12-22T03:42:40;98434.78;;;7.34;88.02
22020;BME280;51298;53.362;-1.518;2023-12-22T03:45:13;98437.72;;;7.31;88.31
22020;BME280;51298;53.362;-1.518;2023-12-22T03:48:27;98438.72;;;7.54;87.10
22020;BME280;51298;53.362;-1.518;2023-12-22T03:51:01;98421.53;;;7.70;86.85
22020;BME280;51298;53.362;-1.518;2023-12-22T03:53:51;98413.88;;;7.60;87.78
22020;BME280;51298;53.362;-1.518;2023-12-22T03:56:28;98428.81;;;7.66;88.08
22020;BME280;51298;53.362;-1.518;2023-12-22T03:59:33;98421.66;;;7.68;89.31
22020;BME280;51298;53.362;-1.518;2023-12-22T04:02:09;98425.91;;;7.61;89.36
22020;BME280;51298;53.362;-1.518;2023-12-22T04:05:00;98432.56;;;7.64;90.15
22020;BME280;51298;53.362;-1.518;2023-12-22T04:07:37;98433.03;;;7.67;90.21
22020;BME280;51298;53.362;-1.518;2023-12-22T04:10:36;98433.22;;;7.74;90.58
22020;BME280;51298;53.362;-1.518;2023-12-22T04:13:37;98438.91;;;7.86;90.22
22020;BME280;51298;53.362;-1.518;2023-12-22T04:16:24;98414.50;;;7.95;89.22
22020;BME280;51298;53.362;-1.518;2023-12-22T04:19:00;98425.56;;;8.05;88.82
22020;BME280;51298;53.362;-1.518;2023-12-22T04:22:18;98423.44;;;8.08;87.74
22020;BME280;51298;53.362;-1.518;2023-12-22T04:24:56;98423.44;;;8.08;86.99
22020;BME280;51298;53.362;-1.518;2023-12-22T04:27:53;98423.44;;;8.08;87.12
22020;BME280;51298;53.362;-1.518;2023-12-22T04:30:29;98425.53;;;8.13;86.49
22020;BME280;51298;53.362;-1.518;2023-12-22T04:33:16;98433.69;;;8.10;87.01
22020;BME280;51298;53.362;-1.518;2023-12-22T04:36:28;98421.19;;;7.97;88.51
22020;BME280;51298;53.362;-1.518;2023-12-22T04:39:45;98412.06;;;8.01;87.92
22020;BME280;51298;53.362;-1.518;2023-12-22T04:42:18;98401.34;;;8.04;88.17
22020;BME280;51298;53.362;-1.518;2023-12-22T04:45:10;98409.28;;;8.03;87.73
22020;BME280;51298;53.362;-1.518;2023-12-22T04:47:59;98399.06;;;8.01;88.17
22020;BME280;51298;53.362;-1.518;2023-12-22T04:50:50;98389.16;;;7.97;88.45
22020;BME280;51298;53.362;-1.518;2023-12-22T04:53:24;98405.06;;;8.02;87.79
22020;BME280;51298;53.362;-1.518;2023-12-22T04:56:16;98406.38;;;7.98;87.69
22020;BME280;51298;53.362;-1.518;2023-12-22T04:58:57;98408.16;;;8.05;87.04
22020;BME280;51298;53.362;-1.518;2023-12-22T05:01:44;98421.00;;;8.07;86.87
22020;BME280;51298;53.362;-1.518;2023-12-22T05:04:27;98414.84;;;8.00;87.53
22020;BME280;51298;53.362;-1.518;2023-12-22T05:07:15;98426.84;;;8.09;86.25
22020;BME280;51298;53.362;-1.518;2023-12-22T05:09:49;98415.81;;;8.15;85.64
22020;BME280;51298;53.362;-1.518;2023-12-22T05:12:39;98426.38;;;8.05;85.99
22020;BME280;51298;53.362;-1.518;2023-12-22T05:15:15;98411.25;;;8.01;86.37
22020;BME280;51298;53.362;-1.518;2023-12-22T05:18:34;98398.75;;;7.96;86.89
22020;BME280;51298;53.362;-1.518;2023-12-22T05:21:18;98401.03;;;7.91;87.48
22020;BME280;51298;53.362;-1.518;2023-12-22T05:23:53;98409.31;;;7.95;87.39
22020;BME280;51298;53.362;-1.518;2023-12-22T05:26:39;98413.56;;;7.96;87.91
22020;BME280;51298;53.362;-1.518;2023-12-22T05:29:23;98423.63;;;7.91;88.45
22020;BME280;51298;53.362;-1.518;2023-12-22T05:32:14;98412.88;;;8.02;88.12
22020;BME280;51298;53.362;-1.518;2023-12-22T05:34:48;98414.00;;;7.99;87.92
22020;BME280;51298;53.362;-1.518;2023-12-22T05:37:37;98401.00;;;7.99;87.42
22020;BME280;51298;53.362;-1.518;2023-12-22T05:40:10;98407.53;;;8.03;86.69
22020;BME280;51298;53.362;-1.518;2023-12-22T05:42:57;98403.78;;;7.98;87.54
22020;BME280;51298;53.362;-1.518;2023-12-22T05:45:31;98402.31;;;7.95;87.42
22020;BME280;51298;53.362;-1.518;2023-12-22T05:48:23;98412.09;;;7.93;88.20
22020;BME280;51298;53.362;-1.518;2023-12-22T05:51:01;98404.59;;;7.90;88.76
22020;BME280;51298;53.362;-1.518;2023-12-22T05:53:52;98409.31;;;7.95;88.61
22020;BME280;51298;53.362;-1.518;2023-12-22T05:56:31;98413.38;;;7.97;88.35
22020;BME280;51298;53.362;-1.518;2023-12-22T05:59:22;98406.88;;;8.01;88.13
22020;BME280;51298;53.362;-1.518;2023-12-22T06:02:07;98412.72;;;8.03;87.92
22020;BME280;51298;53.362;-1.518;2023-12-22T06:04:55;98410.13;;;8.12;86.82
22020;BME280;51298;53.362;-1.518;2023-12-22T06:07:41;98419.88;;;8.10;86.87
22020;BME280;51298;53.362;-1.518;2023-12-22T06:10:43;98436.13;;;8.03;87.36
22020;BME280;51298;53.362;-1.518;2023-12-22T06:13:17;98438.72;;;8.12;86.66
22020;BME280;51298;53.362;-1.518;2023-12-22T06:16:11;98438.56;;;8.13;86.91
22020;BME280;51298;53.362;-1.518;2023-12-22T06:18:48;98440.84;;;8.08;87.45
22020;BME280;51298;53.362;-1.518;2023-12-22T06:21:37;98453.69;;;8.01;87.99
22020;BME280;51298;53.362;-1.518;2023-12-22T06:24:12;98442.97;;;7.96;85.39
22020;BME280;51298;53.362;-1.518;2023-12-22T06:27:04;98444.75;;;7.79;85.10
22020;BME280;51298;53.362;-1.518;2023-12-22T06:29:41;98457.09;;;7.69;84.75
22020;BME280;51298;53.362;-1.518;2023-12-22T06:32:26;98446.34;;;7.64;84.77
22020;BME280;51298;53.362;-1.518;2023-12-22T06:35:00;98448.16;;;7.64;84.08
22020;BME280;51298;53.362;-1.518;2023-12-22T06:37:46;98454.00;;;7.57;84.10
22020;BME280;51298;53.362;-1.518;2023-12-22T06:40:19;98443.91;;;7.46;84.51
22020;BME280;51298;53.362;-1.518;2023-12-22T06:43:06;98445.84;;;7.44;84.52
22020;BME280;51298;53.362;-1.518;2023-12-22T06:45:40;98438.06;;;7.44;83.22
22020;BME280;51298;53.362;-1.518;2023-12-22T06:48:25;98445.34;;;7.32;83.79
22020;BME280;51298;53.362;-1.518;2023-12-22T06:50:58;98452.00;;;7.35;83.70
22020;BME280;51298;53.362;-1.518;2023-12-22T06:53:45;98443.91;;;7.38;83.81
22020;BME280;51298;53.362;-1.518;2023-12-22T06:59:07;98448.75;;;7.41;83.73
22020;BME280;51298;53.362;-1.518;2023-12-22T07:01:39;98462.56;;;7.42;84.04
22020;BME280;51298;53.362;-1.518;2023-12-22T07:07:53;98466.31;;;7.39;85.41
22020;BME280;51298;53.362;-1.518;2023-12-22T07:10:39;98451.50;;;7.31;86.71
22020;BME280;51298;53.362;-1.518;2023-12-22T07:13:18;98462.72;;;7.32;87.32
22020;BME280;51298;53.362;-1.518;2023-12-22T07:16:32;98463.03;;;7.29;88.78
22020;BME280;51298;53.362;-1.518;2023-12-22T07:19:08;98467.91;;;7.32;88.94
22020;BME280;51298;53.362;-1.518;2023-12-22T07:22:07;98462.53;;;7.33;89.60
22020;BME280;51298;53.362;-1.518;2023-12-22T07:24:44;98453.94;;;7.33;90.02
22020;BME280;51298;53.362;-1.518;2023-12-22T07:27:54;98452.53;;;7.47;89.86
22020;BME280;51298;53.362;-1.518;2023-12-22T07:30:29;98441.97;;;7.56;89.77
22020;BME280;51298;53.362;-1.518;2023-12-22T07:33:18;98441.97;;;7.65;89.73
22020;BME280;51298;53.362;-1.518;2023-12-22T07:35:57;98452.03;;;7.76;89.65
22020;BME280;51298;53.362;-1.518;2023-12-22T07:39:07;98454.31;;;7.87;88.62
22020;BME280;51298;53.362;-1.518;2023-12-22T07:41:45;98439.53;;;8.12;86.00
22020;BME280;51298;53.362;-1.518;2023-12-22T07:44:35;98461.78;;;8.15;85.74
22020;BME280;51298;53.362;-1.518;2023-12-22T07:47:08;98447.34;;;8.12;86.04
22020;BME280;51298;53.362;-1.518;2023-12-22T07:49:54;98439.31;;;8.30;83.96
22020;BME280;51298;53.362;-1.518;2023-12-22T07:52:27;98440.97;;;8.31;83.25
22020;BME280;51298;53.362;-1.518;2023-12-22T07:55:12;98465.84;;;8.25;83.96
22020;BME280;51298;53.362;-1.518;2023-12-22T07:57:45;98462.13;;;8.12;85.65
22020;BME280;51298;53.362;-1.518;2023-12-22T08:00:36;98458.72;;;7.95;87.09
22020;BME280;51298;53.362;-1.518;2023-12-22T08:03:09;98458.72;;;7.95;87.25
22020;BME280;51298;53.362;-1.518;2023-12-22T08:05:57;98468.63;;;7.91;87.58
22020;BME280;51298;53.362;-1.518;2023-12-22T08:08:30;98478.69;;;7.78;88.74
22020;BME280;51298;53.362;-1.518;2023-12-22T08:11:25;98475.44;;;7.76;88.87
22020;BME280;51298;53.362;-1.518;2023-12-22T08:13:58;98494.00;;;7.81;88.73
22020;BME280;51298;53.362;-1.518;2023-12-22T08:16:47;98499.34;;;7.88;88.34
22020;BME280;51298;53.362;-1.518;2023-12-22T08:19:20;98490.59;;;7.89;88.95
22020;BME280;51298;53.362;-1.518;2023-12-22T08:22:06;98494.31;;;7.94;88.16
22020;BME280;51298;53.362;-1.518;2023-12-22T08:24:39;98498.69;;;8.02;87.52
22020;BME280;51298;53.362;-1.518;2023-12-22T08:27:26;98499.38;;;8.04;87.53
22020;BME280;51298;53.362;-1.518;2023-12-22T08:30:00;98491.69;;;8.11;85.57
22020;BME280;51298;53.362;-1.518;2023-12-22T08:32:48;98498.88;;;8.17;85.64
22020;BME280;51298;53.362;-1.518;2023-12-22T08:35:24;98497.88;;;8.10;86.37
22020;BME280;51298;53.362;-1.518;2023-12-22T08:38:14;98513.50;;;8.10;86.67
22020;BME280;51298;53.362;-1.518;2023-12-22T08:40:49;98522.41;;;8.07;87.24
22020;BME280;51298;53.362;-1.518;2023-12-22T08:43:38;98536.91;;;8.10;86.72
22020;BME280;51298;53.362;-1.518;2023-12-22T08:46:15;98524.88;;;8.08;87.21
22020;BME280;51298;53.362;-1.518;2023-12-22T08:49:32;98523.41;;;8.06;87.23
22020;BME280;51298;53.362;-1.518;2023-12-22T08:52:14;98538.50;;;8.11;86.54
22020;BME280;51298;53.362;-1.518;2023-12-22T08:55:04;98522.28;;;8.08;86.59
22020;BME280;51298;53.362;-1.518;2023-12-22T08:57:40;98549.91;;;8.26;84.75
22020;BME280;51298;53.362;-1.518;2023-12-22T09:00:26;98521.94;;;8.20;85.20
22020;BME280;51298;53.362;-1.518;2023-12-22T09:03:01;98543.56;;;8.20;85.44
22020;BME280;51298;53.362;-1.518;2023-12-22T09:05:50;98527.00;;;8.13;86.16
22020;BME280;51298;53.362;-1.518;2023-12-22T09:08:29;98538.03;;;8.07;87.10
22020;BME280;51298;53.362;-1.518;2023-12-22T09:14:47;98543.56;;;8.04;87.52
22020;BME280;51298;53.362;-1.518;2023-12-22T09:17:55;98536.72;;;8.03;87.86
22020;BME280;51298;53.362;-1.518;2023-12-22T09:20:46;98537.22;;;8.06;88.18
22020;BME280;51298;53.362;-1.518;2023-12-22T09:23:29;98547.16;;;8.11;87.77
22020;BME280;51298;53.362;-1.518;2023-12-22T09:26:22;98562.75;;;8.11;87.81
22020;BME280;51298;53.362;-1.518;2023-12-22T09:28:55;98542.09;;;8.26;86.21
22020;BME280;51298;53.362;-1.518;2023-12-22T09:32:14;98546.34;;;8.27;85.94
22020;BME280;51298;53.362;-1.518;2023-12-22T09:35:12;98535.75;;;8.37;84.84
22020;BME280;51298;53.362;-1.518;2023-12-22T09:38:25;98558.22;;;8.38;84.24
22020;BME280;51298;53.362;-1.518;2023-12-22T09:41:57;98546.66;;;8.32;84.67
22020;BME280;51298;53.362;-1.518;2023-12-22T09:44:42;98520.16;;;8.37;83.78
22020;BME280;51298;53.362;-1.518;2023-12-22T09:47:42;98558.06;;;8.47;82.87
22020;BME280;51298;53.362;-1.518;2023-12-22T09:50:33;98555.16;;;8.42;83.00
22020;BME280;51298;53.362;-1.518;2023-12-22T09:53:26;98557.41;;;8.37;84.04
22020;BME280;51298;53.362;-1.518;2023-12-22T09:59:32;98566.50;;;8.25;85.58
22020;BME280;51298;53.362;-1.518;2023-12-22T10:02:41;98577.22;;;8.22;85.66
22020;BME280;51298;53.362;-1.518;2023-12-22T10:05:36;98585.69;;;8.24;85.49
22020;BME280;51298;53.362;-1.518;2023-12-22T10:08:17;98563.25;;;8.31;84.04
22020;BME280;51298;53.362;-1.518;2023-12-22T10:11:13;98580.84;;;8.37;84.16
22020;BME280;51298;53.362;-1.518;2023-12-22T10:13:50;98596.63;;;8.44;84.23
22020;BME280;51298;53.362;-1.518;2023-12-22T10:16:40;98605.56;;;8.41;85.00
22020;BME280;51298;53.362;-1.518;2023-12-22T10:19:15;98609.28;;;8.30;85.78
22020;BME280;51298;53.362;-1.518;2023-12-22T10:22:05;98606.31;;;8.25;86.76
22020;BME280;51298;53.362;-1.518;2023-12-22T10:24:45;98601.31;;;8.32;85.83
22020;BME280;51298;53.362;-1.518;2023-12-22T10:27:31;98609.47;;;8.37;85.97
22020;BME280;51298;53.362;-1.518;2023-12-22T10:30:06;98594.63;;;8.29;86.36
22020;BME280;51298;53.362;-1.518;2023-12-22T10:32:56;98586.19;;;8.27;86.31
22020;BME280;51298;53.362;-1.518;2023-12-22T10:35:44;98598.91;;;8.39;85.04
22020;BME280;51298;53.362;-1.518;2023-12-22T10:39:14;98613.81;;;8.28;86.37
22020;BME280;51298;53.362;-1.518;2023-12-22T10:41:55;98597.22;;;8.21;87.27
22020;BME280;51298;53.362;-1.518;2023-12-22T10:44:30;98610.91;;;8.31;86.21
22020;BME280;51298;53.362;-1.518;2023-12-22T10:47:17;98598.53;;;8.33;85.64
22020;BME280;51298;53.362;-1.518;2023-12-22T10:49:52;98586.34;;;8.34;85.69
22020;BME280;51298;53.362;-1.518;2023-12-22T10:56:32;98572.38;;;8.19;87.01
22020;BME280;51298;53.362;-1.518;2023-12-22T10:59:16;98569.75;;;8.19;86.93
22020;BME280;51298;53.362;-1.518;2023-12-22T11:05:38;98589.72;;;8.18;86.64
22020;BME280;51298;53.362;-1.518;2023-12-22T11:08:45;98576.91;;;8.17;87.35
22020;BME280;51298;53.362;-1.518;2023-12-22T11:11:36;98577.06;;;8.23;86.39
22020;BME280;51298;53.362;-1.518;2023-12-22T11:14:23;98574.31;;;8.25;86.37
22020;BME280;51298;53.362;-1.518;2023-12-22T11:17:09;98589.91;;;8.25;86.67
22020;BME280;51298;53.362;-1.518;2023-12-22T11:19:59;98603.72;;;8.17;87.64
22020;BME280;51298;53.362;-1.518;2023-12-22T11:22:42;98590.41;;;8.20;86.72
22020;BME280;51298;53.362;-1.518;2023-12-22T11:25:37;98581.63;;;8.21;85.80
22020;BME280;51298;53.362;-1.518;2023-12-22T11:28:12;98574.97;;;8.19;86.74
22020;BME280;51298;53.362;-1.518;2023-12-22T11:31:33;98597.38;;;8.12;87.46
22020;BME280;51298;53.362;-1.518;2023-12-22T11:34:40;98577.38;;;8.04;88.47
22020;BME280;51298;53.362;-1.518;2023-12-22T11:38:00;98583.41;;;8.04;88.62
22020;BME280;51298;53.362;-1.518;2023-12-22T11:41:08;98581.59;;;8.13;88.01
22020;BME280;51298;53.362;-1.518;2023-12-22T11:44:04;98566.19;;;8.12;87.58
22020;BME280;51298;53.362;-1.518;2023-12-22T11:47:08;98589.41;;;8.21;87.22
22020;BME280;51298;53.362;-1.518;2023-12-22T11:49:44;98581.78;;;8.36;85.00
22020;BME280;51298;53.362;-1.518;2023-12-22T11:52:33;98579.69;;;8.31;85.71
22020;BME280;51298;53.362;-1.518;2023-12-22T11:59:22;98573.38;;;8.42;83.87
22020;BME280;51298;53.362;-1.518;2023-12-22T12:01:57;98579.69;;;8.48;83.33
22020;BME280;51298;53.362;-1.518;2023-12-22T12:04:48;98566.19;;;8.52;83.11
22020;BME280;51298;53.362;-1.518;2023-12-22T12:07:45;98584.41;;;8.61;82.63
22020;BME280;51298;53.362;-1.518;2023-12-22T12:13:10;98577.28;;;8.46;84.13
22020;BME280;51298;53.362;-1.518;2023-12-22T12:15:56;98589.13;;;8.41;84.35
22020;BME280;51298;53.362;-1.518;2023-12-22T12:18:32;98604.25;;;8.37;84.45
22020;BME280;51298;53.362;-1.518;2023-12-22T12:21:18;98594.50;;;8.39;84.15
22020;BME280;51298;53.362;-1.518;2023-12-22T12:23:50;98584.09;;;8.39;84.29
22020;BME280;51298;53.362;-1.518;2023-12-22T12:26:36;98606.53;;;8.40;84.37
22020;BME280;51298;53.362;-1.518;2023-12-22T12:29:09;98600.69;;;8.38;84.78
22020;BME280;51298;53.362;-1.518;2023-12-22T12:32:05;98579.19;;;8.36;84.94
22020;BME280;51298;53.362;-1.518;2023-12-22T12:34:44;98591.38;;;8.36;84.63
22020;BME280;51298;53.362;-1.518;2023-12-22T12:37:36;98610.75;;;8.41;83.43
22020;BME280;51298;53.362;-1.518;2023-12-22T12:40:16;98615.47;;;8.38;84.33
22020;BME280;51298;53.362;-1.518;2023-12-22T12:43:13;98591.22;;;8.29;84.81
22020;BME280;51298;53.362;-1.518;2023-12-22T12:45:54;98593.81;;;8.29;84.66
22020;BME280;51298;53.362;-1.518;2023-12-22T12:48:49;98599.69;;;8.23;85.62
22020;BME280;51298;53.362;-1.518;2023-12-22T12:51:46;98598.38;;;8.27;85.17
22020;BME280;51298;53.362;-1.518;2023-12-22T12:54:48;98599.69;;;8.23;85.59
22020;BME280;51298;53.362;-1.518;2023-12-22T12:57:33;98587.00;;;8.20;85.77
22020;BME280;51298;53.362;-1.518;2023-12-22T13:01:03;98614.94;;;8.18;86.52
22020;BME280;51298;53.362;-1.518;2023-12-22T13:04:38;98633.50;;;8.23;86.47
22020;BME280;51298;53.362;-1.518;2023-12-22T13:07:34;98613.19;;;8.26;85.91
22020;BME280;51298;53.362;-1.518;2023-12-22T13:10:42;98609.00;;;8.50;82.24
22020;BME280;51298;53.362;-1.518;2023-12-22T13:13:45;98610.78;;;8.58;80.98
22020;BME280;51298;53.362;-1.518;2023-12-22T13:16:20;98593.38;;;8.66;79.75
22020;BME280;51298;53.362;-1.518;2023-12-22T13:19:32;98588.66;;;8.62;80.54
22020;BME280;51298;53.362;-1.518;2023-12-22T13:22:15;98585.06;;;8.54;81.62
22020;BME280;51298;53.362;-1.518;2023-12-22T13:25:10;98592.22;;;8.52;81.67
22020;BME280;51298;53.362;-1.518;2023-12-22T13:27:48;98596.78;;;8.42;82.83
22020;BME280;51298;53.362;-1.518;2023-12-22T13:31:11;98595.78;;;8.35;83.76
22020;BME280;51298;53.362;-1.518;2023-12-22T13:34:02;98595.50;;;8.38;83.78
22020;BME280;51298;53.362;-1.518;2023-12-22T13:37:13;98603.91;;;8.32;84.58
22020;BME280;51298;53.362;-1.518;2023-12-22T13:40:13;98582.91;;;8.33;84.61
22020;BME280;51298;53.362;-1.518;2023-12-22T13:43:53;98562.31;;;8.40;83.32
22020;BME280;51298;53.362;-1.518;2023-12-22T13:47:07;98568.97;;;8.51;82.41
22020;BME280;51298;53.362;-1.518;2023-12-22T13:50:15;98577.91;;;8.48;82.40
22020;BME280;51298;53.362;-1.518;2023-12-22T13:57:33;98553.53;;;8.58;81.24
22020;BME280;51298;53.362;-1.518;2023-12-22T14:03:20;98586.69;;;8.72;79.79
22020;BME280;51298;53.362;-1.518;2023-12-22T14:06:27;98587.47;;;8.72;79.84
22020;BME280;51298;53.362;-1.518;2023-12-22T14:13:15;98618.09;;;8.78;78.77
22020;BME280;51298;53.362;-1.518;2023-12-22T14:16:16;98624.09;;;8.71;79.25
22020;BME280;51298;53.362;-1.518;2023-12-22T14:23:54;98627.94;;;8.18;84.78
22020;BME280;51298;53.362;-1.518;2023-12-22T14:31:35;98619.00;;;8.04;84.32
22020;BME280;51298;53.362;-1.518;2023-12-22T14:35:04;98631.84;;;8.14;82.57
22020;BME280;51298;53.362;-1.518;2023-12-22T14:41:33;98645.81;;;8.13;83.38
22020;BME280;51298;53.362;-1.518;2023-12-22T14:45:17;98650.72;;;8.16;83.31
22020;BME280;51298;53.362;-1.518;2023-12-22T14:51:48;98647.53;;;8.38;81.47
22020;BME280;51298;53.362;-1.518;2023-12-22T14:54:58;98683.75;;;8.23;82.82
22020;BME280;51298;53.362;-1.518;2023-12-22T14:57:43;98688.28;;;8.21;82.81
22020;BME280;51298;53.362;-1.518;2023-12-22T15:00:29;98676.06;;;8.22;82.86
22020;BME280;51298;53.362;-1.518;2023-12-22T15:06:10;98688.72;;;8.08;84.45
22020;BME280;51298;53.362;-1.518;2023-12-22T15:08:43;98701.06;;;8.06;84.19
22020;BME280;51298;53.362;-1.518;2023-12-22T15:11:57;98706.75;;;8.02;85.03
22020;BME280;51298;53.362;-1.518;2023-12-22T15:14:31;98717.97;;;8.02;84.97
22020;BME280;51298;53.362;-1.518;2023-12-22T15:17:18;98724.81;;;8.03;85.77
22020;BME280;51298;53.362;-1.518;2023-12-22T15:19:51;98737.75;;;7.95;86.62
22020;BME280;51298;53.362;-1.518;2023-12-22T15:22:39;98732.75;;;8.02;85.68
22020;BME280;51298;53.362;-1.518;2023-12-22T15:25:12;98743.97;;;8.02;85.83
22020;BME280;51298;53.362;-1.518;2023-12-22T15:28:33;98741.75;;;8.16;84.19
22020;BME280;51298;53.362;-1.518;2023-12-22T15:31:47;98757.00;;;8.11;84.62
22020;BME280;51298;53.362;-1.518;2023-12-22T15:34:57;98736.19;;;8.11;84.75
22020;BME280;51298;53.362;-1.518;2023-12-22T15:37:37;98755.56;;;8.08;85.06
22020;BME280;51298;53.362;-1.518;2023-12-22T15:40:14;98786.91;;;8.06;85.51
22020;BME280;51298;53.362;-1.518;2023-12-22T15:43:05;98804.28;;;8.06;85.80
22020;BME280;51298;53.362;-1.518;2023-12-22T15:45:43;98790.31;;;8.07;85.93
22020;BME280;51298;53.362;-1.518;2023-12-22T15:48:39;98789.19;;;8.10;84.95
22020;BME280;51298;53.362;-1.518;2023-12-22T15:51:13;98800.91;;;8.14;84.96